sensor_id;sensor_type;location;lat;lon;timestamp;temperature;humidity
8226;DHT22;4154;48.810;9.012;2023-04-15T00:00:05;5.40;98.60
8226;DHT22;4154;48.810;9.012;2023-04-15T00:02:32;5.40;98.50
8226;DHT22;4154;48.810;9.012;2023-04-15T00:09:49;5.30;98.90
8226;DHT22;4154;48.810;9.012;2023-04-15T00:12:19;5.40;91.20
8226;DHT22;4154;48.810;9.012;2023-04-15T00:24:31;5.10;99.20
8226;DHT22;4154;48.810;9.012;2023-04-15T00:26:57;5.00;99.40
8226;DHT22;4154;48.810;9.012;2023-04-15T00:31:49;5.10;99.50
8226;DHT22;4154;48.810;9.012;2023-04-15T00:34:15;4.90;99.60
8226;DHT22;4154;48.810;9.012;2023-04-15T00:36:40;4.90;99.50
8226;DHT22;4154;48.810;9.012;2023-04-15T00:39:06;5.00;91.90
8226;DHT22;4154;48.810;9.012;2023-04-15T00:41:32;4.90;99.60
8226;DHT22;4154;48.810;9.012;2023-04-15T00:46:28;4.90;99.70
8226;DHT22;4154;48.810;9.012;2023-04-15T00:56:16;4.90;99.80
8226;DHT22;4154;48.810;9.012;2023-04-15T01:01:09;4.70;99.70
8226;DHT22;4154;48.810;9.012;2023-04-15T01:11:00;4.60;92.00
8226;DHT22;4154;48.810;9.012;2023-04-15T01:13:28;4.60;92.10
8226;DHT22;4154;48.810;9.012;2023-04-15T01:15:55;4.70;99.90
8226;DHT22;4154;48.810;9.012;2023-04-15T01:23:15;4.70;99.90
8226;DHT22;4154;48.810;9.012;2023-04-15T01:25:42;4.30;99.80
8226;DHT22;4154;48.810;9.012;2023-04-15T01:28:08;4.50;99.90
8226;DHT22;4154;48.810;9.012;2023-04-15T01:40:26;4.40;92.50
8226;DHT22;4154;48.810;9.012;2023-04-15T01:47:43;4.30;99.90
8226;DHT22;4154;48.810;9.012;2023-04-15T01:50:09;4.30;99.90
8226;DHT22;4154;48.810;9.012;2023-04-15T01:57:28;4.30;92.30
8226;DHT22;4154;48.810;9.012;2023-04-15T02:07:12;4.30;99.90
8226;DHT22;4154;48.810;9.012;2023-04-15T02:09:38;4.10;92.60
8226;DHT22;4154;48.810;9.012;2023-04-15T02:12:04;4.00;92.70
8226;DHT22;4154;48.810;9.012;2023-04-15T02:14:29;4.10;92.80
8226;DHT22;4154;48.810;9.012;2023-04-15T02:16:55;4.10;99.90
8226;DHT22;4154;48.810;9.012;2023-04-15T02:21:47;4.00;99.90
8226;DHT22;4154;48.810;9.012;2023-04-15T02:24:13;4.10;99.90
8226;DHT22;4154;48.810;9.012;2023-04-15T02:29:04;3.90;92.90
8226;DHT22;4154;48.810;9.012;2023-04-15T02:36:29;3.90;92.90
8226;DHT22;4154;48.810;9.012;2023-04-15T02:41:22;3.90;93.00
8226;DHT22;4154;48.810;9.012;2023-04-15T02:43:51;3.70;99.90
8226;DHT22;4154;48.810;9.012;2023-04-15T02:46:17;3.80;93.40
8226;DHT22;4154;48.810;9.012;2023-04-15T02:48:42;3.80;99.90
8226;DHT22;4154;48.810;9.012;2023-04-15T02:51:15;3.80;99.90
8226;DHT22;4154;48.810;9.012;2023-04-15T02:53:46;3.80;99.90
8226;DHT22;4154;48.810;9.012;2023-04-15T03:01:06;3.70;93.20
8226;DHT22;4154;48.810;9.012;2023-04-15T03:03:33;3.70;99.90
8226;DHT22;4154;48.810;9.012;2023-04-15T03:05:59;3.70;93.60
8226;DHT22;4154;48.810;9.012;2023-04-15T03:08:25;3.70;93.70
8226;DHT22;4154;48.810;9.012;2023-04-15T03:10:51;3.50;99.90
8226;DHT22;4154;48.810;9.012;2023-04-15T03:15:45;3.70;93.50
8226;DHT22;4154;48.810;9.012;2023-04-15T03:23:03;3.70;99.90
8226;DHT22;4154;48.810;9.012;2023-04-15T03:25:29;3.60;99.90
8226;DHT22;4154;48.810;9.012;2023-04-15T03:27:55;3.60;99.90
8226;DHT22;4154;48.810;9.012;2023-04-15T03:40:06;3.50;99.90
8226;DHT22;4154;48.810;9.012;2023-04-15T03:47:24;3.50;99.90
8226;DHT22;4154;48.810;9.012;2023-04-15T03:52:16;3.40;99.90
8226;DHT22;4154;48.810;9.012;2023-04-15T03:57:07;3.40;99.90
8226;DHT22;4154;48.810;9.012;2023-04-15T04:02:00;3.60;99.90
8226;DHT22;4154;48.810;9.012;2023-04-15T04:04:25;3.50;99.90
8226;DHT22;4154;48.810;9.012;2023-04-15T04:06:51;3.50;99.90
8226;DHT22;4154;48.810;9.012;2023-04-15T04:16:35;3.30;99.90
8226;DHT22;4154;48.810;9.012;2023-04-15T04:19:01;3.30;99.90
8226;DHT22;4154;48.810;9.012;2023-04-15T04:21:27;3.30;99.90
8226;DHT22;4154;48.810;9.012;2023-04-15T04:23:52;3.40;93.80
8226;DHT22;4154;48.810;9.012;2023-04-15T04:26:18;3.20;99.90
8226;DHT22;4154;48.810;9.012;2023-04-15T04:28:44;3.30;93.80
8226;DHT22;4154;48.810;9.012;2023-04-15T04:31:09;3.40;99.90
8226;DHT22;4154;48.810;9.012;2023-04-15T04:45:47;3.20;99.90
8226;DHT22;4154;48.810;9.012;2023-04-15T04:48:13;3.30;99.90
8226;DHT22;4154;48.810;9.012;2023-04-15T04:57:57;3.30;99.90
8226;DHT22;4154;48.810;9.012;2023-04-15T05:00:23;3.20;99.90
8226;DHT22;4154;48.810;9.012;2023-04-15T05:05:15;3.10;99.90
8226;DHT22;4154;48.810;9.012;2023-04-15T05:10:07;3.30;99.90
8226;DHT22;4154;48.810;9.012;2023-04-15T05:12:34;3.20;99.90
8226;DHT22;4154;48.810;9.012;2023-04-15T05:17:26;3.20;99.90
8226;DHT22;4154;48.810;9.012;2023-04-15T05:22:18;3.20;99.90
8226;DHT22;4154;48.810;9.012;2023-04-15T05:24:43;3.20;94.10
8226;DHT22;4154;48.810;9.012;2023-04-15T05:27:09;3.20;99.90
8226;DHT22;4154;48.810;9.012;2023-04-15T05:32:02;3.40;99.90
8226;DHT22;4154;48.810;9.012;2023-04-15T05:34:27;3.30;99.90
8226;DHT22;4154;48.810;9.012;2023-04-15T05:36:53;3.20;99.90
8226;DHT22;4154;48.810;9.012;2023-04-15T05:41:45;3.30;99.90
8226;DHT22;4154;48.810;9.012;2023-04-15T05:44:11;3.20;94.50
8226;DHT22;4154;48.810;9.012;2023-04-15T05:46:36;3.30;99.90
8226;DHT22;4154;48.810;9.012;2023-04-15T05:56:20;3.50;99.90
8226;DHT22;4154;48.810;9.012;2023-04-15T05:58:46;3.70;99.90
8226;DHT22;4154;48.810;9.012;2023-04-15T06:01:12;3.40;99.90
8226;DHT22;4154;48.810;9.012;2023-04-15T06:08:30;3.80;99.90
8226;DHT22;4154;48.810;9.012;2023-04-15T06:10:55;3.80;94.80
8226;DHT22;4154;48.810;9.012;2023-04-15T06:15:49;4.70;99.90
8226;DHT22;4154;48.810;9.012;2023-04-15T06:30:24;4.40;94.60
8226;DHT22;4154;48.810;9.012;2023-04-15T06:37:43;4.70;94.60
8226;DHT22;4154;48.810;9.012;2023-04-15T06:40:09;4.70;94.90
8226;DHT22;4154;48.810;9.012;2023-04-15T06:42:35;5.00;99.90
8226;DHT22;4154;48.810;9.012;2023-04-15T06:45:02;4.90;94.90
8226;DHT22;4154;48.810;9.012;2023-04-15T06:47:28;5.00;94.90
8226;DHT22;4154;48.810;9.012;2023-04-15T06:57:12;5.30;95.10
8226;DHT22;4154;48.810;9.012;2023-04-15T07:02:04;5.60;95.00
8226;DHT22;4154;48.810;9.012;2023-04-15T07:09:23;6.10;94.70
8226;DHT22;4154;48.810;9.012;2023-04-15T07:14:15;6.30;99.90
8226;DHT22;4154;48.810;9.012;2023-04-15T07:16:41;6.30;94.50
8226;DHT22;4154;48.810;9.012;2023-04-15T07:19:07;6.90;99.90
8226;DHT22;4154;48.810;9.012;2023-04-15T07:21:32;6.50;94.20
8226;DHT22;4154;48.810;9.012;2023-04-15T07:33:42;7.00;93.80
8226;DHT22;4154;48.810;9.012;2023-04-15T07:36:08;7.10;94.00
8226;DHT22;4154;48.810;9.012;2023-04-15T07:43:27;7.50;93.60
8226;DHT22;4154;48.810;9.012;2023-04-15T07:45:52;8.30;99.90
8226;DHT22;4154;48.810;9.012;2023-04-15T07:48:18;7.80;93.70
8226;DHT22;4154;48.810;9.012;2023-04-15T07:53:09;8.10;93.30
8226;DHT22;4154;48.810;9.012;2023-04-15T07:55:35;8.30;99.90
8226;DHT22;4154;48.810;9.012;2023-04-15T07:58:01;8.60;99.90
8226;DHT22;4154;48.810;9.012;2023-04-15T08:02:52;8.90;92.40
8226;DHT22;4154;48.810;9.012;2023-04-15T08:05:18;9.10;98.90
8226;DHT22;4154;48.810;9.012;2023-04-15T08:07:44;9.10;91.60
8226;DHT22;4154;48.810;9.012;2023-04-15T08:10:11;9.30;90.90
8226;DHT22;4154;48.810;9.012;2023-04-15T08:17:29;9.60;90.40
8226;DHT22;4154;48.810;9.012;2023-04-15T08:19:55;9.70;90.50
8226;DHT22;4154;48.810;9.012;2023-04-15T08:22:21;9.80;90.40
8226;DHT22;4154;48.810;9.012;2023-04-15T08:24:47;9.90;90.30
8226;DHT22;4154;48.810;9.012;2023-04-15T08:27:12;9.90;90.40
8226;DHT22;4154;48.810;9.012;2023-04-15T08:29:38;10.00;89.40
8226;DHT22;4154;48.810;9.012;2023-04-15T08:32:05;10.10;96.90
8226;DHT22;4154;48.810;9.012;2023-04-15T08:36:57;10.30;95.90
8226;DHT22;4154;48.810;9.012;2023-04-15T08:39:22;10.20;88.30
8226;DHT22;4154;48.810;9.012;2023-04-15T08:41:59;10.40;87.50
8226;DHT22;4154;48.810;9.012;2023-04-15T08:44:28;10.50;87.30
8226;DHT22;4154;48.810;9.012;2023-04-15T08:47:00;10.80;85.80
8226;DHT22;4154;48.810;9.012;2023-04-15T08:49:30;10.80;86.30
8226;DHT22;4154;48.810;9.012;2023-04-15T08:52:00;10.90;86.10
8226;DHT22;4154;48.810;9.012;2023-04-15T08:56:53;11.10;83.50
8226;DHT22;4154;48.810;9.012;2023-04-15T08:59:20;11.20;84.50
8226;DHT22;4154;48.810;9.012;2023-04-15T09:01:47;11.20;83.70
8226;DHT22;4154;48.810;9.012;2023-04-15T09:04:14;11.30;83.80
8226;DHT22;4154;48.810;9.012;2023-04-15T09:06:41;11.30;81.40
8226;DHT22;4154;48.810;9.012;2023-04-15T09:09:07;11.30;81.90
8226;DHT22;4154;48.810;9.012;2023-04-15T09:11:33;11.40;83.40
8226;DHT22;4154;48.810;9.012;2023-04-15T09:16:26;11.50;80.00
8226;DHT22;4154;48.810;9.012;2023-04-15T09:18:52;11.50;80.40
8226;DHT22;4154;48.810;9.012;2023-04-15T09:21:18;11.60;81.10
8226;DHT22;4154;48.810;9.012;2023-04-15T09:23:58;11.60;80.90
8226;DHT22;4154;48.810;9.012;2023-04-15T09:26:33;11.60;81.90
8226;DHT22;4154;48.810;9.012;2023-04-15T09:29:06;11.70;80.40
8226;DHT22;4154;48.810;9.012;2023-04-15T09:31:34;11.70;80.50
8226;DHT22;4154;48.810;9.012;2023-04-15T09:36:27;11.80;78.30
8226;DHT22;4154;48.810;9.012;2023-04-15T09:38:57;11.90;92.10
8226;DHT22;4154;48.810;9.012;2023-04-15T09:41:25;11.90;79.20
8226;DHT22;4154;48.810;9.012;2023-04-15T09:43:51;12.00;78.90
8226;DHT22;4154;48.810;9.012;2023-04-15T09:46:17;12.10;78.70
8226;DHT22;4154;48.810;9.012;2023-04-15T09:51:09;12.10;91.90
8226;DHT22;4154;48.810;9.012;2023-04-15T09:56:03;12.20;79.90
8226;DHT22;4154;48.810;9.012;2023-04-15T09:58:32;12.30;79.20
8226;DHT22;4154;48.810;9.012;2023-04-15T10:01:02;12.30;79.70
8226;DHT22;4154;48.810;9.012;2023-04-15T10:03:33;12.40;80.00
8226;DHT22;4154;48.810;9.012;2023-04-15T10:06:01;12.60;81.60
8226;DHT22;4154;48.810;9.012;2023-04-15T10:08:30;12.60;81.80
8226;DHT22;4154;48.810;9.012;2023-04-15T10:10:57;12.70;80.50
8226;DHT22;4154;48.810;9.012;2023-04-15T10:13:26;12.70;80.60
8226;DHT22;4154;48.810;9.012;2023-04-15T10:16:06;12.80;79.90
8226;DHT22;4154;48.810;9.012;2023-04-15T10:18:41;12.70;79.70
8226;DHT22;4154;48.810;9.012;2023-04-15T10:21:08;12.70;81.30
8226;DHT22;4154;48.810;9.012;2023-04-15T10:23:34;12.80;81.50
8226;DHT22;4154;48.810;9.012;2023-04-15T10:26:01;12.90;80.60
8226;DHT22;4154;48.810;9.012;2023-04-15T10:28:30;12.90;80.00
8226;DHT22;4154;48.810;9.012;2023-04-15T10:30:57;13.00;93.40
8226;DHT22;4154;48.810;9.012;2023-04-15T10:33:24;12.90;81.80
8226;DHT22;4154;48.810;9.012;2023-04-15T10:35:54;12.90;93.60
8226;DHT22;4154;48.810;9.012;2023-04-15T10:38:40;12.90;83.80
8226;DHT22;4154;48.810;9.012;2023-04-15T10:41:23;12.80;84.20
8226;DHT22;4154;48.810;9.012;2023-04-15T10:44:01;12.90;80.50
8226;DHT22;4154;48.810;9.012;2023-04-15T10:46:41;12.80;80.60
8226;DHT22;4154;48.810;9.012;2023-04-15T10:49:14;12.80;79.20
8226;DHT22;4154;48.810;9.012;2023-04-15T10:51:46;12.80;76.90
8226;DHT22;4154;48.810;9.012;2023-04-15T10:54:31;12.90;78.30
8226;DHT22;4154;48.810;9.012;2023-04-15T10:59:30;13.00;80.00
8226;DHT22;4154;48.810;9.012;2023-04-15T11:02:05;13.10;78.40
8226;DHT22;4154;48.810;9.012;2023-04-15T11:12:43;13.30;89.40
8226;DHT22;4154;48.810;9.012;2023-04-15T11:15:41;13.30;75.30
8226;DHT22;4154;48.810;9.012;2023-04-15T11:18:21;13.30;77.80
8226;DHT22;4154;48.810;9.012;2023-04-15T11:20:50;13.30;77.40
8226;DHT22;4154;48.810;9.012;2023-04-15T11:23:25;13.30;78.50
8226;DHT22;4154;48.810;9.012;2023-04-15T11:25:54;13.10;90.50
8226;DHT22;4154;48.810;9.012;2023-04-15T11:28:28;13.20;76.80
8226;DHT22;4154;48.810;9.012;2023-04-15T11:30:55;13.30;90.80
8226;DHT22;4154;48.810;9.012;2023-04-15T11:33:22;13.10;75.80
8226;DHT22;4154;48.810;9.012;2023-04-15T11:35:49;12.90;89.50
8226;DHT22;4154;48.810;9.012;2023-04-15T11:38:17;13.20;74.50
8226;DHT22;4154;48.810;9.012;2023-04-15T11:43:17;13.30;74.10
8226;DHT22;4154;48.810;9.012;2023-04-15T11:45:55;13.50;90.90
8226;DHT22;4154;48.810;9.012;2023-04-15T11:48:35;13.50;76.30
8226;DHT22;4154;48.810;9.012;2023-04-15T11:51:05;13.60;77.40
8226;DHT22;4154;48.810;9.012;2023-04-15T11:53:43;13.60;90.10
8226;DHT22;4154;48.810;9.012;2023-04-15T11:56:21;13.70;75.60
8226;DHT22;4154;48.810;9.012;2023-04-15T11:58:51;13.70;76.30
8226;DHT22;4154;48.810;9.012;2023-04-15T12:01:32;13.70;77.90
8226;DHT22;4154;48.810;9.012;2023-04-15T12:04:15;13.80;76.00
8226;DHT22;4154;48.810;9.012;2023-04-15T12:06:43;13.80;77.00
8226;DHT22;4154;48.810;9.012;2023-04-15T12:09:13;13.90;76.80
8226;DHT22;4154;48.810;9.012;2023-04-15T12:11:43;13.80;74.60
8226;DHT22;4154;48.810;9.012;2023-04-15T12:17:05;13.80;87.10
8226;DHT22;4154;48.810;9.012;2023-04-15T12:19:34;13.90;71.00
8226;DHT22;4154;48.810;9.012;2023-04-15T12:22:07;13.80;70.30
8226;DHT22;4154;48.810;9.012;2023-04-15T12:24:35;13.80;69.90
8226;DHT22;4154;48.810;9.012;2023-04-15T12:27:07;13.70;71.80
8226;DHT22;4154;48.810;9.012;2023-04-15T12:29:35;13.70;72.20
8226;DHT22;4154;48.810;9.012;2023-04-15T12:32:11;13.80;73.20
8226;DHT22;4154;48.810;9.012;2023-04-15T12:34:43;13.90;79.10
8226;DHT22;4154;48.810;9.012;2023-04-15T12:37:15;13.70;80.70
8226;DHT22;4154;48.810;9.012;2023-04-15T12:39:42;13.60;82.60
8226;DHT22;4154;48.810;9.012;2023-04-15T12:42:10;13.50;82.60
8226;DHT22;4154;48.810;9.012;2023-04-15T12:44:37;13.40;82.60
8226;DHT22;4154;48.810;9.012;2023-04-15T12:47:03;13.40;82.50
8226;DHT22;4154;48.810;9.012;2023-04-15T12:49:30;13.30;79.80
8226;DHT22;4154;48.810;9.012;2023-04-15T12:51:58;13.30;80.40
8226;DHT22;4154;48.810;9.012;2023-04-15T12:54:25;13.40;78.30
8226;DHT22;4154;48.810;9.012;2023-04-15T12:56:52;13.30;78.60
8226;DHT22;4154;48.810;9.012;2023-04-15T12:59:19;13.20;79.80
8226;DHT22;4154;48.810;9.012;2023-04-15T13:01:47;13.10;78.30
8226;DHT22;4154;48.810;9.012;2023-04-15T13:04:13;13.10;79.30
8226;DHT22;4154;48.810;9.012;2023-04-15T13:06:40;13.00;80.10
8226;DHT22;4154;48.810;9.012;2023-04-15T13:09:06;13.10;79.20
8226;DHT22;4154;48.810;9.012;2023-04-15T13:11:32;13.10;79.10
8226;DHT22;4154;48.810;9.012;2023-04-15T13:14:03;13.10;78.80
8226;DHT22;4154;48.810;9.012;2023-04-15T13:16:30;13.10;78.90
8226;DHT22;4154;48.810;9.012;2023-04-15T13:18:56;13.10;77.10
8226;DHT22;4154;48.810;9.012;2023-04-15T13:21:26;12.90;75.00
8226;DHT22;4154;48.810;9.012;2023-04-15T13:23:53;12.90;74.20
8226;DHT22;4154;48.810;9.012;2023-04-15T13:26:19;12.80;75.30
8226;DHT22;4154;48.810;9.012;2023-04-15T13:28:45;12.70;73.80
8226;DHT22;4154;48.810;9.012;2023-04-15T13:33:37;12.50;74.40
8226;DHT22;4154;48.810;9.012;2023-04-15T13:36:03;12.50;75.70
8226;DHT22;4154;48.810;9.012;2023-04-15T13:38:28;12.50;76.20
8226;DHT22;4154;48.810;9.012;2023-04-15T13:40:54;12.50;74.90
8226;DHT22;4154;48.810;9.012;2023-04-15T13:43:20;12.60;75.80
8226;DHT22;4154;48.810;9.012;2023-04-15T13:45:46;12.60;90.60
8226;DHT22;4154;48.810;9.012;2023-04-15T13:48:12;12.60;76.40
8226;DHT22;4154;48.810;9.012;2023-04-15T13:55:30;12.80;76.10
8226;DHT22;4154;48.810;9.012;2023-04-15T13:57:56;12.80;83.10
8226;DHT22;4154;48.810;9.012;2023-04-15T14:00:21;12.90;66.00
8226;DHT22;4154;48.810;9.012;2023-04-15T14:02:47;12.90;65.90
8226;DHT22;4154;48.810;9.012;2023-04-15T14:05:14;12.60;64.50
8226;DHT22;4154;48.810;9.012;2023-04-15T14:07:40;12.60;64.40
8226;DHT22;4154;48.810;9.012;2023-04-15T14:10:06;12.50;65.90
8226;DHT22;4154;48.810;9.012;2023-04-15T14:12:32;12.40;65.70
8226;DHT22;4154;48.810;9.012;2023-04-15T14:22:16;12.20;68.00
8226;DHT22;4154;48.810;9.012;2023-04-15T14:24:43;12.10;68.60
8226;DHT22;4154;48.810;9.012;2023-04-15T14:27:09;12.00;84.20
8226;DHT22;4154;48.810;9.012;2023-04-15T14:32:03;12.00;68.80
8226;DHT22;4154;48.810;9.012;2023-04-15T14:34:28;11.90;70.20
8226;DHT22;4154;48.810;9.012;2023-04-15T14:36:55;11.90;69.50
8226;DHT22;4154;48.810;9.012;2023-04-15T14:39:23;11.90;69.50
8226;DHT22;4154;48.810;9.012;2023-04-15T14:41:49;11.80;69.90
8226;DHT22;4154;48.810;9.012;2023-04-15T14:44:14;11.80;70.40
8226;DHT22;4154;48.810;9.012;2023-04-15T14:46:42;11.80;71.00
8226;DHT22;4154;48.810;9.012;2023-04-15T14:49:08;11.70;71.50
8226;DHT22;4154;48.810;9.012;2023-04-15T14:51:33;11.70;72.30
8226;DHT22;4154;48.810;9.012;2023-04-15T14:53:59;11.70;72.60
8226;DHT22;4154;48.810;9.012;2023-04-15T14:56:25;11.60;73.90
8226;DHT22;4154;48.810;9.012;2023-04-15T14:58:51;11.60;90.40
8226;DHT22;4154;48.810;9.012;2023-04-15T15:01:19;11.50;74.00
8226;DHT22;4154;48.810;9.012;2023-04-15T15:03:45;11.50;74.50
8226;DHT22;4154;48.810;9.012;2023-04-15T15:06:11;11.50;91.00
8226;DHT22;4154;48.810;9.012;2023-04-15T15:08:37;11.40;91.10
8226;DHT22;4154;48.810;9.012;2023-04-15T15:11:04;11.40;76.60
8226;DHT22;4154;48.810;9.012;2023-04-15T15:20:50;11.30;76.70
8226;DHT22;4154;48.810;9.012;2023-04-15T15:23:15;11.30;91.60
8226;DHT22;4154;48.810;9.012;2023-04-15T15:25:42;11.20;92.10
8226;DHT22;4154;48.810;9.012;2023-04-15T15:28:13;11.30;79.20
8226;DHT22;4154;48.810;9.012;2023-04-15T15:33:05;11.40;77.70
8226;DHT22;4154;48.810;9.012;2023-04-15T15:35:31;11.40;78.20
8226;DHT22;4154;48.810;9.012;2023-04-15T15:37:58;11.30;91.30
8226;DHT22;4154;48.810;9.012;2023-04-15T15:40:24;11.30;77.40
8226;DHT22;4154;48.810;9.012;2023-04-15T15:42:50;11.30;77.80
8226;DHT22;4154;48.810;9.012;2023-04-15T15:52:35;11.30;76.10
8226;DHT22;4154;48.810;9.012;2023-04-15T15:55:00;11.30;76.50
8226;DHT22;4154;48.810;9.012;2023-04-15T15:59:52;11.30;76.20
8226;DHT22;4154;48.810;9.012;2023-04-15T16:02:18;11.30;77.40
8226;DHT22;4154;48.810;9.012;2023-04-15T16:04:43;11.60;92.30
8226;DHT22;4154;48.810;9.012;2023-04-15T16:07:10;11.30;78.70
8226;DHT22;4154;48.810;9.012;2023-04-15T16:09:36;12.80;93.30
8226;DHT22;4154;48.810;9.012;2023-04-15T16:12:02;11.30;91.90
8226;DHT22;4154;48.810;9.012;2023-04-15T16:14:28;11.30;78.10
8226;DHT22;4154;48.810;9.012;2023-04-15T16:16:54;11.20;92.40
8226;DHT22;4154;48.810;9.012;2023-04-15T16:21:46;11.20;80.50
8226;DHT22;4154;48.810;9.012;2023-04-15T16:24:12;11.20;94.30
8226;DHT22;4154;48.810;9.012;2023-04-15T16:26:38;11.10;94.40
8226;DHT22;4154;48.810;9.012;2023-04-15T16:31:31;10.90;95.40
8226;DHT22;4154;48.810;9.012;2023-04-15T16:33:57;11.00;95.90
8226;DHT22;4154;48.810;9.012;2023-04-15T16:36:25;10.90;87.50
8226;DHT22;4154;48.810;9.012;2023-04-15T16:55:55;10.50;99.50
8226;DHT22;4154;48.810;9.012;2023-04-15T17:03:14;9.80;99.90
8226;DHT22;4154;48.810;9.012;2023-04-15T17:05:40;10.70;99.90
8226;DHT22;4154;48.810;9.012;2023-04-15T17:15:26;9.90;99.90
8226;DHT22;4154;48.810;9.012;2023-04-15T17:20:18;9.80;95.60
8226;DHT22;4154;48.810;9.012;2023-04-15T17:22:44;9.70;96.00
8226;DHT22;4154;48.810;9.012;2023-04-15T17:25:12;9.60;96.20
8226;DHT22;4154;48.810;9.012;2023-04-15T17:27:39;9.60;96.60
8226;DHT22;4154;48.810;9.012;2023-04-15T17:30:06;9.60;96.80
8226;DHT22;4154;48.810;9.012;2023-04-15T17:32:33;9.50;96.80
8226;DHT22;4154;48.810;9.012;2023-04-15T17:37:27;9.50;96.80
8226;DHT22;4154;48.810;9.012;2023-04-15T17:39:53;9.50;97.20
8226;DHT22;4154;48.810;9.012;2023-04-15T17:42:19;9.30;99.90
8226;DHT22;4154;48.810;9.012;2023-04-15T17:44:45;9.50;97.80
8226;DHT22;4154;48.810;9.012;2023-04-15T17:47:11;9.30;99.90
8226;DHT22;4154;48.810;9.012;2023-04-15T17:49:37;9.50;99.90
8226;DHT22;4154;48.810;9.012;2023-04-15T17:52:04;9.50;99.90
8226;DHT22;4154;48.810;9.012;2023-04-15T17:54:30;9.20;99.90
8226;DHT22;4154;48.810;9.012;2023-04-15T17:56:55;9.30;97.90
8226;DHT22;4154;48.810;9.012;2023-04-15T18:01:48;9.20;97.90
8226;DHT22;4154;48.810;9.012;2023-04-15T18:04:14;9.20;99.90
8226;DHT22;4154;48.810;9.012;2023-04-15T18:06:40;8.80;99.90
8226;DHT22;4154;48.810;9.012;2023-04-15T18:09:06;8.90;98.30
8226;DHT22;4154;48.810;9.012;2023-04-15T18:11:33;8.90;98.50
8226;DHT22;4154;48.810;9.012;2023-04-15T18:14:01;8.80;98.90
8226;DHT22;4154;48.810;9.012;2023-04-15T18:18:54;8.70;98.80
8226;DHT22;4154;48.810;9.012;2023-04-15T18:21:20;8.70;99.90
8226;DHT22;4154;48.810;9.012;2023-04-15T18:26:12;8.70;99.90
8226;DHT22;4154;48.810;9.012;2023-04-15T18:28:38;8.70;99.90
8226;DHT22;4154;48.810;9.012;2023-04-15T18:31:04;8.80;99.90
8226;DHT22;4154;48.810;9.012;2023-04-15T18:40:49;8.60;99.90
8226;DHT22;4154;48.810;9.012;2023-04-15T18:45:41;8.40;99.90
8226;DHT22;4154;48.810;9.012;2023-04-15T18:52:59;8.50;99.90
8226;DHT22;4154;48.810;9.012;2023-04-15T19:05:09;8.30;99.90
8226;DHT22;4154;48.810;9.012;2023-04-15T19:10:03;8.50;99.90
8226;DHT22;4154;48.810;9.012;2023-04-15T19:12:30;8.50;99.90
8226;DHT22;4154;48.810;9.012;2023-04-15T19:17:21;8.50;99.90
8226;DHT22;4154;48.810;9.012;2023-04-15T19:19:47;8.50;99.90
8226;DHT22;4154;48.810;9.012;2023-04-15T19:22:14;8.50;99.90
8226;DHT22;4154;48.810;9.012;2023-04-15T19:29:32;8.30;99.90
8226;DHT22;4154;48.810;9.012;2023-04-15T19:31:58;8.40;99.90
8226;DHT22;4154;48.810;9.012;2023-04-15T19:34:24;8.40;99.90
8226;DHT22;4154;48.810;9.012;2023-04-15T19:39:16;8.20;99.90
8226;DHT22;4154;48.810;9.012;2023-04-15T19:41:42;8.30;99.90
8226;DHT22;4154;48.810;9.012;2023-04-15T19:44:09;8.20;99.90
8226;DHT22;4154;48.810;9.012;2023-04-15T19:51:30;8.30;99.90
8226;DHT22;4154;48.810;9.012;2023-04-15T19:53:56;8.30;99.90
8226;DHT22;4154;48.810;9.012;2023-04-15T19:56:23;8.20;99.90
8226;DHT22;4154;48.810;9.012;2023-04-15T19:58:50;8.40;99.90
8226;DHT22;4154;48.810;9.012;2023-04-15T20:01:20;8.30;99.90
8226;DHT22;4154;48.810;9.012;2023-04-15T20:06:14;8.30;99.90
8226;DHT22;4154;48.810;9.012;2023-04-15T20:08:40;8.20;99.90
8226;DHT22;4154;48.810;9.012;2023-04-15T20:11:05;8.20;99.90
8226;DHT22;4154;48.810;9.012;2023-04-15T20:15:57;8.10;99.90
8226;DHT22;4154;48.810;9.012;2023-04-15T20:18:23;8.30;99.90
8226;DHT22;4154;48.810;9.012;2023-04-15T20:20:48;8.50;99.90
8226;DHT22;4154;48.810;9.012;2023-04-15T20:23:14;9.10;99.90
8226;DHT22;4154;48.810;9.012;2023-04-15T20:25:40;8.20;99.90
8226;DHT22;4154;48.810;9.012;2023-04-15T20:28:06;7.90;99.90
8226;DHT22;4154;48.810;9.012;2023-04-15T20:32:58;8.20;99.90
8226;DHT22;4154;48.810;9.012;2023-04-15T20:45:13;8.10;99.90
8226;DHT22;4154;48.810;9.012;2023-04-15T20:47:39;8.10;99.90
8226;DHT22;4154;48.810;9.012;2023-04-15T20:50:05;8.10;99.90
8226;DHT22;4154;48.810;9.012;2023-04-15T20:52:31;8.00;99.90
8226;DHT22;4154;48.810;9.012;2023-04-15T20:54:57;8.10;99.90
8226;DHT22;4154;48.810;9.012;2023-04-15T21:09:37;8.10;99.90
8226;DHT22;4154;48.810;9.012;2023-04-15T21:17:00;8.00;99.90
8226;DHT22;4154;48.810;9.012;2023-04-15T21:19:35;8.00;99.90
8226;DHT22;4154;48.810;9.012;2023-04-15T21:26:54;8.00;99.90
8226;DHT22;4154;48.810;9.012;2023-04-15T21:29:21;8.00;99.90
8226;DHT22;4154;48.810;9.012;2023-04-15T21:31:48;8.10;99.90
8226;DHT22;4154;48.810;9.012;2023-04-15T21:41:32;8.20;99.90
8226;DHT22;4154;48.810;9.012;2023-04-15T21:46:24;8.00;99.90
8226;DHT22;4154;48.810;9.012;2023-04-15T21:48:53;8.00;99.90
8226;DHT22;4154;48.810;9.012;2023-04-15T21:56:11;8.00;99.90
8226;DHT22;4154;48.810;9.012;2023-04-15T21:58:37;7.90;99.90
8226;DHT22;4154;48.810;9.012;2023-04-15T22:01:03;7.90;99.90
8226;DHT22;4154;48.810;9.012;2023-04-15T22:03:30;8.00;99.90
8226;DHT22;4154;48.810;9.012;2023-04-15T22:06:01;8.00;99.90
8226;DHT22;4154;48.810;9.012;2023-04-15T22:18:12;7.90;99.90
8226;DHT22;4154;48.810;9.012;2023-04-15T22:28:06;7.90;99.90
8226;DHT22;4154;48.810;9.012;2023-04-15T22:30:41;7.90;99.90
8226;DHT22;4154;48.810;9.012;2023-04-15T22:33:08;7.90;99.90
8226;DHT22;4154;48.810;9.012;2023-04-15T22:40:28;8.00;99.90
8226;DHT22;4154;48.810;9.012;2023-04-15T22:47:46;7.90;99.90
8226;DHT22;4154;48.810;9.012;2023-04-15T22:50:12;8.30;99.90
8226;DHT22;4154;48.810;9.012;2023-04-15T22:52:38;7.90;99.90
8226;DHT22;4154;48.810;9.012;2023-04-15T22:55:04;7.80;99.90
8226;DHT22;4154;48.810;9.012;2023-04-15T22:57:30;7.90;99.90
8226;DHT22;4154;48.810;9.012;2023-04-15T23:16:58;7.80;99.90
8226;DHT22;4154;48.810;9.012;2023-04-15T23:24:16;7.90;99.90
8226;DHT22;4154;48.810;9.012;2023-04-15T23:26:42;7.60;99.90
8226;DHT22;4154;48.810;9.012;2023-04-15T23:29:08;8.00;99.90
8226;DHT22;4154;48.810;9.012;2023-04-15T23:34:01;7.80;99.90
8226;DHT22;4154;48.810;9.012;2023-04-15T23:36:28;8.00;99.90
8226;DHT22;4154;48.810;9.012;2023-04-15T23:43:46;7.80;99.90
8226;DHT22;4154;48.810;9.012;2023-04-15T23:53:31;7.50;99.90
8226;DHT22;4154;48.810;9.012;2023-04-15T23:55:56;7.80;99.90
8226;DHT22;4154;48.810;9.012;2023-04-15T23:58:22;7.80;99.90
